Time;durP1;ratioP1;P1;durP2;ratioP2;P2;SDS_P1;SDS_P2;PMS_P1;PMS_P2;Temp;Humidity;BMP_temperature;BMP_pressure;BME280_temperature;BME280_humidity;BME280_pressure;Samples;Min_cycle;Max_cycle;Signal;HPM_P1;HPM_P2
2021/08/17 00:01:36;;;;;;;9.63;5.18;;;;;;;18.05;93.74;100243.56;6383371;27;20198;-77
2021/08/17 00:04:41;;;;;;;6.10;5.18;;;;;;;18.06;93.50;100239.66;6366522;28;20188;-77
2021/08/17 00:07:45;;;;;;;8.85;5.05;;;;;;;18.06;93.58;100236.91;6367111;28;20204;-77
2021/08/17 00:10:52;;;;;;;5.63;5.00;;;;;;;18.11;93.15;100232.19;6367563;28;20204;-77
2021/08/17 00:13:57;;;;;;;7.57;4.57;;;;;;;18.09;92.98;100228.06;6367561;28;20197;-77
2021/08/17 00:17:02;;;;;;;7.93;4.55;;;;;;;18.13;92.79;100223.63;6366358;28;20357;-77
2021/08/17 00:20:09;;;;;;;6.57;4.60;;;;;;;18.07;93.13;100211.78;6367791;28;20189;-77
2021/08/17 00:23:16;;;;;;;9.95;4.40;;;;;;;18.06;93.56;100209.31;6367737;28;20182;-77
2021/08/17 00:26:21;;;;;;;7.70;4.88;;;;;;;18.04;93.98;100203.25;6367278;28;20237;-77
2021/08/17 00:29:25;;;;;;;5.28;4.47;;;;;;;18.07;93.66;100202.69;6367662;28;20186;-77
2021/08/17 00:32:31;;;;;;;7.20;4.63;;;;;;;18.10;93.83;100202.13;6366152;28;20474;-77
2021/08/17 00:35:36;;;;;;;9.70;4.63;;;;;;;18.17;93.07;100201.81;6367221;28;20230;-77
2021/08/17 00:38:41;;;;;;;12.05;5.50;;;;;;;18.16;93.35;100206.50;6367471;28;20189;-77
2021/08/17 00:41:46;;;;;;;7.15;4.47;;;;;;;18.15;93.19;100199.34;6367287;28;20197;-77
2021/08/17 00:44:51;;;;;;;6.20;4.60;;;;;;;18.16;93.07;100198.22;6367282;28;20280;-77
2021/08/17 00:47:57;;;;;;;7.63;4.70;;;;;;;18.19;93.14;100189.38;6366281;28;20182;-77
2021/08/17 00:51:02;;;;;;;7.45;4.97;;;;;;;18.15;93.11;100185.53;6366854;28;20189;-77
2021/08/17 00:54:07;;;;;;;9.43;5.15;;;;;;;18.17;93.15;100197.13;6367443;28;20189;-77
2021/08/17 00:57:17;;;;;;;9.00;4.20;;;;;;;18.17;93.09;100191.59;6366207;28;20186;-77
2021/08/17 01:00:21;;;;;;;5.85;4.40;;;;;;;18.14;93.37;100181.13;6365944;28;20351;-76
2021/08/17 01:03:27;;;;;;;4.88;4.10;;;;;;;18.19;93.41;100186.63;6366310;28;20182;-77
2021/08/17 01:06:32;;;;;;;7.80;4.60;;;;;;;18.19;92.81;100189.38;6365102;28;20267;-77
2021/08/17 01:09:38;;;;;;;4.93;4.47;;;;;;;18.19;92.79;100183.84;6365681;28;20188;-77
2021/08/17 01:12:44;;;;;;;6.13;4.28;;;;;;;18.19;93.41;100183.84;6366603;28;20189;-77
2021/08/17 01:15:48;;;;;;;4.60;4.22;;;;;;;18.15;93.25;100175.31;6365509;28;20230;-77
2021/08/17 01:18:57;;;;;;;4.55;4.07;;;;;;;18.15;93.77;100177.25;6366438;28;20187;-77
2021/08/17 01:22:01;;;;;;;4.88;4.53;;;;;;;18.15;93.74;100188.31;6364922;28;20512;-77
2021/08/17 01:25:06;;;;;;;8.32;4.88;;;;;;;18.14;94.17;100176.44;6364900;28;20481;-77
2021/08/17 01:28:13;;;;;;;12.13;5.20;;;;;;;18.17;94.17;100176.97;6365166;28;20216;-77
2021/08/17 01:31:18;;;;;;;8.27;5.05;;;;;;;18.10;94.97;100167.03;6364759;28;20270;-77
2021/08/17 01:34:24;;;;;;;8.60;5.03;;;;;;;18.06;95.69;100181.69;6365269;28;20182;-77
2021/08/17 01:37:28;;;;;;;5.28;4.68;;;;;;;18.09;95.49;100173.69;6365665;28;20333;-77
2021/08/17 01:40:33;;;;;;;9.35;4.75;;;;;;;18.10;95.37;100180.03;6365953;28;20283;-77
2021/08/17 01:43:39;;;;;;;7.70;4.78;;;;;;;18.14;94.89;100181.13;6365401;28;20189;-77
2021/08/17 01:46:44;;;;;;;9.88;5.15;;;;;;;18.09;95.65;100181.13;6365195;28;20279;-77
2021/08/17 01:49:48;;;;;;;6.22;5.07;;;;;;;18.07;95.75;100175.09;6364309;28;20213;-77
2021/08/17 01:52:53;;;;;;;8.57;5.57;;;;;;;18.04;96.11;100175.63;6365523;28;20190;-77
2021/08/17 01:55:59;;;;;;;11.68;5.70;;;;;;;18.02;96.74;100177.88;6365245;28;20249;-77
2021/08/17 01:59:06;;;;;;;7.80;5.50;;;;;;;18.05;96.23;100180.06;6364096;28;20382;-77
2021/08/17 02:02:11;;;;;;;13.60;5.45;;;;;;;18.09;95.89;100183.91;6365324;28;20182;-77
2021/08/17 02:05:20;;;;;;;7.18;5.45;;;;;;;18.10;95.99;100180.03;6365328;28;20214;-77
2021/08/17 02:08:24;;;;;;;6.20;5.68;;;;;;;18.08;96.29;100176.72;6364773;28;20210;-77
2021/08/17 02:11:29;;;;;;;11.27;6.45;;;;;;;18.04;97.05;100170.13;6364197;28;20186;-77
2021/08/17 02:14:35;;;;;;;9.35;6.15;;;;;;;18.05;97.17;100166.25;6363956;28;20392;-77
2021/08/17 02:17:39;;;;;;;9.38;6.28;;;;;;;18.10;96.40;100171.75;6364279;28;20190;-77
2021/08/17 02:20:44;;;;;;;6.95;6.13;;;;;;;18.13;96.17;100176.69;6363099;28;20527;-77
2021/08/17 02:23:48;;;;;;;7.38;5.90;;;;;;;18.13;96.66;100168.41;6363535;28;20478;-77
2021/08/17 02:26:53;;;;;;;9.95;6.30;;;;;;;18.08;97.10;100177.53;6363289;28;20509;-77
2021/08/17 02:29:58;;;;;;;7.82;5.97;;;;;;;18.13;96.68;100163.72;6364403;28;20213;-77
2021/08/17 02:33:05;;;;;;;10.02;6.78;;;;;;;18.10;97.21;100175.31;6363634;28;20204;-77
2021/08/17 02:36:12;;;;;;;11.07;5.88;;;;;;;18.13;96.84;100179.44;6364161;28;20194;-77
2021/08/17 02:39:16;;;;;;;6.57;5.63;;;;;;;18.20;96.14;100168.97;6364094;28;20221;-77
2021/08/17 02:42:23;;;;;;;7.95;5.78;;;;;;;18.24;95.87;100170.03;6364296;28;20221;-77
2021/08/17 02:45:29;;;;;;;8.27;5.40;;;;;;;18.18;96.58;100165.63;6364497;28;20265;-77
2021/08/17 02:48:33;;;;;;;8.68;5.43;;;;;;;18.15;97.01;100182.78;6363784;28;20206;-77
2021/08/17 02:51:37;;;;;;;5.97;5.25;;;;;;;18.15;97.12;100167.03;6363069;28;20190;-77
2021/08/17 02:54:41;;;;;;;6.60;5.82;;;;;;;18.15;96.82;100171.75;6363784;28;20182;-77
2021/08/17 02:57:48;;;;;;;6.10;5.38;;;;;;;18.16;97.07;100173.38;6363971;28;20186;-77
2021/08/17 03:00:54;;;;;;;10.20;6.30;;;;;;;18.10;97.89;100169.81;6362466;28;20383;-77
2021/08/17 03:04:02;;;;;;;7.43;5.68;;;;;;;18.13;98.08;100168.41;6363479;28;20227;-77
2021/08/17 03:07:07;;;;;;;9.52;5.13;;;;;;;18.04;99.25;100159.06;6362412;28;20497;-77
2021/08/17 03:10:11;;;;;;;8.13;5.50;;;;;;;18.05;99.22;100166.25;6363363;28;20250;-77
2021/08/17 03:13:16;;;;;;;6.85;5.57;;;;;;;18.01;99.73;100159.63;6363650;28;20259;-76
2021/08/17 03:16:22;;;;;;;6.05;5.43;;;;;;;18.01;99.69;100145.84;6362000;28;20612;-77
2021/08/17 03:19:30;;;;;;;9.48;5.38;;;;;;;18.10;99.38;100152.44;6362011;28;20527;-77
2021/08/17 03:22:35;;;;;;;5.75;5.15;;;;;;;18.08;99.26;100157.41;6362180;28;20274;-77
2021/08/17 03:25:39;;;;;;;5.25;4.70;;;;;;;18.18;98.21;100157.34;6363417;28;20192;-77
2021/08/17 03:28:43;;;;;;;4.95;4.55;;;;;;;18.16;98.29;100156.81;6363002;28;20216;-77
2021/08/17 03:31:49;;;;;;;4.97;4.50;;;;;;;18.14;98.22;100154.34;6361148;28;20182;-77
2021/08/17 03:34:53;;;;;;;4.97;4.43;;;;;;;18.14;98.12;100148.81;6362264;28;20245;-77
2021/08/17 03:37:57;;;;;;;6.20;4.80;;;;;;;18.09;98.70;100145.25;6363281;28;20186;-77
2021/08/17 03:41:02;;;;;;;4.43;4.05;;;;;;;18.17;98.01;100149.34;6360958;28;20182;-77
2021/08/17 03:44:06;;;;;;;6.35;4.03;;;;;;;18.20;97.54;100146.88;6361771;28;20488;-77
2021/08/17 03:47:12;;;;;;;4.30;3.97;;;;;;;18.24;97.12;100145.19;6362767;28;20214;-77
2021/08/17 03:50:17;;;;;;;6.68;4.43;;;;;;;18.22;97.26;100150.16;6363092;28;20182;-77
2021/08/17 03:53:22;;;;;;;4.07;3.78;;;;;;;18.20;97.49;100149.63;6361729;28;20418;-77
2021/08/17 03:56:26;;;;;;;3.95;3.80;;;;;;;18.26;96.89;100145.72;6363079;28;20189;-77
2021/08/17 03:59:31;;;;;;;3.70;3.50;;;;;;;18.22;97.66;100149.34;6362680;28;20186;-77
2021/08/17 04:02:36;;;;;;;4.25;3.97;;;;;;;18.18;97.82;100154.59;6363007;28;20250;-77
2021/08/17 04:05:43;;;;;;;5.53;3.60;;;;;;;18.26;96.94;100162.28;6361752;28;20259;-77
2021/08/17 04:08:48;;;;;;;7.03;3.70;;;;;;;18.22;97.23;100150.16;6362816;28;20206;-77
2021/08/17 04:11:52;;;;;;;5.30;3.88;;;;;;;18.09;98.52;100135.03;6362559;28;20189;-77
2021/08/17 04:14:56;;;;;;;4.25;3.95;;;;;;;18.03;100.00;100140.84;6361430;28;20233;-77
2021/08/17 04:18:02;;;;;;;6.15;3.88;;;;;;;18.09;99.79;100145.25;6361617;28;20504;-77
2021/08/17 04:21:06;;;;;;;3.47;3.40;;;;;;;18.07;99.87;100137.28;6361684;28;20196;-77
2021/08/17 04:24:12;;;;;;;5.75;4.53;;;;;;;18.05;100.00;100141.41;6362721;28;20182;-77
2021/08/17 04:27:16;;;;;;;4.50;4.10;;;;;;;18.05;100.00;100144.19;6361404;28;20413;-77
2021/08/17 04:30:21;;;;;;;5.35;4.22;;;;;;;18.03;100.00;100146.38;6361764;28;20214;-77
2021/08/17 04:33:26;;;;;;;8.25;3.50;;;;;;;18.11;99.08;100151.31;6362277;28;20265;-77
2021/08/17 04:36:30;;;;;;;8.45;3.60;;;;;;;18.13;98.64;100146.31;6362136;28;20197;-77
2021/08/17 04:39:38;;;;;;;4.15;3.75;;;;;;;18.13;98.99;100140.81;6362471;28;20187;-77
2021/08/17 04:42:42;;;;;;;5.90;3.30;;;;;;;18.18;98.70;100134.47;6363215;28;20189;-77
2021/08/17 04:45:47;;;;;;;3.60;3.30;;;;;;;18.20;98.24;100135.00;6367228;28;20182;-77
2021/08/17 04:48:53;;;;;;;7.88;3.65;;;;;;;18.22;97.77;100130.00;6365537;28;20248;-77
2021/08/17 04:51:58;;;;;;;3.72;3.40;;;;;;;18.12;98.88;100125.38;6366736;28;20182;-77
2021/08/17 04:55:02;;;;;;;3.90;3.63;;;;;;;18.17;98.61;100125.34;6367014;28;20213;-77
2021/08/17 04:58:09;;;;;;;4.65;4.35;;;;;;;18.12;99.32;100128.97;6365890;28;20208;-77
2021/08/17 05:01:13;;;;;;;4.15;3.85;;;;;;;18.14;99.14;100117.63;6366411;28;20189;-77
2021/08/17 05:04:21;;;;;;;3.80;3.50;;;;;;;18.14;99.47;100114.88;6366855;28;20183;-77
2021/08/17 05:07:25;;;;;;;3.38;3.25;;;;;;;18.22;98.95;100118.97;6365382;28;20385;-77
2021/08/17 05:10:29;;;;;;;4.03;3.33;;;;;;;18.24;98.75;100119.50;6365282;28;20356;-77
2021/08/17 05:13:34;;;;;;;3.20;3.00;;;;;;;18.23;98.43;100135.25;6365199;28;20496;-77
2021/08/17 05:16:38;;;;;;;2.95;2.75;;;;;;;18.25;97.98;100127.50;6364855;28;20278;-77
2021/08/17 05:19:43;;;;;;;3.40;3.20;;;;;;;18.22;98.65;100127.25;6367172;28;20193;-77
2021/08/17 05:22:48;;;;;;;4.10;3.10;;;;;;;18.30;97.95;100116.44;6366551;28;20182;-76
2021/08/17 05:25:52;;;;;;;3.30;3.10;;;;;;;18.23;98.96;100129.75;6365282;28;20568;-77
2021/08/17 05:28:56;;;;;;;3.72;3.30;;;;;;;18.24;98.89;100123.09;6365111;28;20290;-77
2021/08/17 05:32:00;;;;;;;3.53;3.28;;;;;;;18.26;98.90;100111.78;6366242;28;20245;-77
2021/08/17 05:35:07;;;;;;;3.65;3.45;;;;;;;18.24;98.99;100119.50;6366100;28;20182;-77
2021/08/17 05:38:14;;;;;;;3.65;3.28;;;;;;;18.31;98.29;100115.31;6366139;28;20231;-77
2021/08/17 05:41:18;;;;;;;3.13;3.00;;;;;;;18.35;98.21;100104.53;6365713;28;20279;-77
2021/08/17 05:44:22;;;;;;;2.88;2.80;;;;;;;18.39;97.75;100111.94;6365096;28;20259;-77
2021/08/17 05:47:27;;;;;;;3.10;2.90;;;;;;;18.40;97.61;100113.63;6365601;28;20220;-77
2021/08/17 05:50:32;;;;;;;2.58;2.45;;;;;;;18.30;97.56;100110.91;6365163;28;20241;-77
2021/08/17 05:53:36;;;;;;;2.63;2.45;;;;;;;18.37;97.39;100103.13;6365550;28;20186;-77
2021/08/17 05:56:40;;;;;;;2.70;2.50;;;;;;;18.30;98.44;100102.63;6364638;28;20331;-76
2021/08/17 05:59:45;;;;;;;2.70;2.53;;;;;;;18.33;97.97;100102.06;6365446;28;20186;-76
2021/08/17 06:02:49;;;;;;;2.30;2.10;;;;;;;18.23;98.69;100096.63;6365577;28;20219;-76
2021/08/17 06:05:57;;;;;;;2.65;2.42;;;;;;;18.25;97.74;100104.59;6363759;28;20183;-76
2021/08/17 06:09:04;;;;;;;2.67;2.47;;;;;;;18.29;96.91;100106.50;6364832;28;20213;-76
2021/08/17 06:12:10;;;;;;;2.70;2.50;;;;;;;18.27;97.19;100108.72;6365168;28;20182;-76
2021/08/17 06:15:15;;;;;;;2.72;2.53;;;;;;;18.24;97.59;100103.75;6365420;28;20233;-76
2021/08/17 06:18:19;;;;;;;4.07;2.58;;;;;;;18.28;97.25;100099.34;6363718;28;20182;-76
2021/08/17 06:21:25;;;;;;;5.80;2.67;;;;;;;18.33;97.37;100107.59;6364815;28;20213;-76
2021/08/17 06:24:29;;;;;;;2.38;2.28;;;;;;;18.34;97.51;100092.66;6363810;28;20190;-76
2021/08/17 06:27:35;;;;;;;2.33;2.13;;;;;;;18.37;96.53;100103.13;6363161;28;20204;-77
2021/08/17 06:30:41;;;;;;;3.22;2.40;;;;;;;18.30;97.29;100090.75;6362759;28;20217;-76
2021/08/17 06:33:45;;;;;;;2.33;2.22;;;;;;;18.34;96.96;100092.66;6364125;28;20182;-76
2021/08/17 06:36:52;;;;;;;3.33;2.30;;;;;;;18.35;95.94;100088.78;6362891;28;20191;-76
2021/08/17 06:39:56;;;;;;;2.30;2.20;;;;;;;18.29;96.07;100084.41;6362845;28;20208;-76
2021/08/17 06:43:00;;;;;;;2.05;1.90;;;;;;;18.34;95.87;100073.31;6364093;28;20250;-76
2021/08/17 06:46:05;;;;;;;2.33;2.00;;;;;;;18.27;96.75;100086.63;6362631;28;20529;-76
2021/08/17 06:49:10;;;;;;;7.15;2.30;;;;;;;18.31;96.59;100090.47;6362715;28;20274;-76
2021/08/17 06:52:15;;;;;;;4.53;1.90;;;;;;;18.31;96.53;100087.69;6363999;28;20182;-76
2021/08/17 06:55:19;;;;;;;2.58;1.90;;;;;;;18.35;96.26;100088.78;6363750;28;20189;-76
2021/08/17 06:58:24;;;;;;;2.67;1.80;;;;;;;18.41;95.74;100092.34;6363466;28;20189;-76
2021/08/17 07:01:28;;;;;;;3.13;1.90;;;;;;;18.36;95.32;100090.44;6363858;28;20287;-76
2021/08/17 07:04:33;;;;;;;2.53;2.25;;;;;;;18.39;94.56;100100.06;6363766;28;20257;-76
2021/08/17 07:07:38;;;;;;;3.58;2.15;;;;;;;18.43;94.29;100085.44;6363693;28;20189;-78
2021/08/17 07:10:44;;;;;;;1.90;1.80;;;;;;;18.45;94.49;100083.19;6362691;28;20209;-76
2021/08/17 07:13:59;;;;;;;2.25;1.88;;;;;;;18.41;95.17;100098.69;6363388;28;20236;-77
2021/08/17 07:17:05;;;;;;;2.03;1.90;;;;;;;18.35;95.63;100094.31;6363369;28;20182;-76
2021/08/17 07:20:11;;;;;;;2.17;2.00;;;;;;;18.33;95.57;100102.06;6362288;28;20497;-76
2021/08/17 07:23:17;;;;;;;4.13;2.10;;;;;;;18.34;94.59;100109.22;6363222;28;20194;-76
2021/08/17 07:26:22;;;;;;;6.93;2.25;;;;;;;18.27;95.77;100105.97;6362161;28;20527;-76
2021/08/17 07:29:32;;;;;;;5.60;2.00;;;;;;;18.25;95.69;100110.94;6363008;28;20210;-76
2021/08/17 07:32:36;;;;;;;2.10;2.00;;;;;;;18.20;96.36;100119.25;6362322;28;20204;-76
2021/08/17 07:35:40;;;;;;;2.30;2.10;;;;;;;18.14;97.41;100106.59;6362924;28;20182;-75
2021/08/17 07:38:46;;;;;;;2.28;2.13;;;;;;;18.13;96.94;100096.63;6361814;28;20182;-76
2021/08/17 07:41:52;;;;;;;1.58;1.58;;;;;;;18.01;95.84;100110.78;6362591;28;20190;-78
2021/08/17 07:44:56;;;;;;;1.85;1.63;;;;;;;17.96;95.39;100113.56;6361754;28;20473;-76
2021/08/17 07:48:00;;;;;;;1.40;1.40;;;;;;;18.01;95.10;100109.97;6362831;28;20252;-76
2021/08/17 07:51:05;;;;;;;1.63;1.48;;;;;;;18.08;94.84;100118.75;6362866;28;20210;-76
2021/08/17 07:54:13;;;;;;;1.58;1.48;;;;;;;18.03;94.27;100124.28;6361586;28;20505;-76
2021/08/17 07:57:17;;;;;;;3.80;1.67;;;;;;;18.15;94.90;100122.06;6361934;28;20186;-76
2021/08/17 08:00:23;;;;;;;1.70;1.70;;;;;;;18.14;95.29;100120.38;6362793;28;20189;-76
2021/08/17 08:03:28;;;;;;;2.28;2.08;;;;;;;18.09;95.93;100117.66;6362740;28;20185;-76
2021/08/17 08:06:32;;;;;;;1.60;1.50;;;;;;;18.18;95.75;100115.13;6361458;28;20227;-76
2021/08/17 08:09:37;;;;;;;5.05;1.60;;;;;;;18.28;93.53;100121.44;6361333;28;20438;-76
2021/08/17 08:12:42;;;;;;;1.60;1.50;;;;;;;18.26;93.32;100122.81;6361855;28;20182;-77
2021/08/17 08:15:47;;;;;;;2.28;2.17;;;;;;;18.25;92.52;100110.94;6361518;28;20265;-77
2021/08/17 08:18:51;;;;;;;1.90;1.83;;;;;;;18.27;91.20;100125.28;6365324;28;20188;-77
2021/08/17 08:21:55;;;;;;;4.78;2.08;;;;;;;18.27;93.30;100119.78;6367714;28;20193;-77
2021/08/17 08:25:01;;;;;;;1.90;1.80;;;;;;;18.35;91.13;100121.09;6366331;28;20561;-77
2021/08/17 08:28:05;;;;;;;4.22;1.90;;;;;;;18.31;91.88;100120.84;6366344;28;20482;-77
2021/08/17 08:31:10;;;;;;;2.70;1.55;;;;;;;18.23;92.92;100128.91;6366024;28;20399;-77
2021/08/17 08:34:14;;;;;;;1.60;1.60;;;;;;;18.13;94.18;100129.75;6367471;28;20182;-77
2021/08/17 08:37:21;;;;;;;1.60;1.50;;;;;;;18.21;91.88;100126.41;6365986;28;20182;-77
2021/08/17 08:40:27;;;;;;;1.67;1.67;;;;;;;18.13;91.59;100118.72;6366407;28;20186;-77
2021/08/17 08:43:31;;;;;;;1.25;1.25;;;;;;;18.18;90.66;100132.50;6366009;28;20207;-77
2021/08/17 08:46:36;;;;;;;1.25;1.25;;;;;;;18.04;90.62;100137.00;6365989;28;20182;-77
2021/08/17 08:49:43;;;;;;;3.30;1.45;;;;;;;18.10;91.11;100141.41;6366762;28;20251;-76
2021/08/17 08:52:47;;;;;;;1.55;1.50;;;;;;;18.15;91.31;100133.09;6366759;28;20182;-77
2021/08/17 08:55:53;;;;;;;1.60;1.50;;;;;;;18.19;91.02;100134.16;6367600;28;20182;-77
2021/08/17 08:58:58;;;;;;;1.70;1.60;;;;;;;18.14;91.27;100136.94;6367757;28;20245;-77
2021/08/17 09:02:06;;;;;;;1.42;1.42;;;;;;;18.17;91.09;100130.03;6366478;28;20186;-77
2021/08/17 09:05:13;;;;;;;1.40;1.40;;;;;;;18.14;90.87;100131.44;6366939;28;20371;-77
2021/08/17 09:08:23;;;;;;;1.60;1.50;;;;;;;18.02;91.80;100136.47;6366779;28;20189;-77
2021/08/17 09:11:29;;;;;;;1.40;1.40;;;;;;;18.17;89.95;100136.38;6366830;28;20213;-77
2021/08/17 09:14:35;;;;;;;1.27;1.25;;;;;;;18.17;89.94;100143.84;6367659;28;20284;-77
2021/08/17 09:17:41;;;;;;;1.67;1.40;;;;;;;18.10;90.83;100136.69;6367029;28;20223;-78
2021/08/17 09:20:48;;;;;;;1.42;1.42;;;;;;;18.07;90.08;100136.44;6365671;28;20186;-75
2021/08/17 09:23:52;;;;;;;1.48;1.38;;;;;;;18.08;88.89;100132.56;6366135;28;20183;-77
2021/08/17 09:27:00;;;;;;;1.38;1.30;;;;;;;18.13;87.82;100129.75;6366678;28;20189;-78
2021/08/17 09:30:09;;;;;;;1.45;1.35;;;;;;;18.13;87.91;100140.81;6364840;28;20186;-76
2021/08/17 09:33:15;;;;;;;1.38;1.23;;;;;;;17.84;89.13;100137.09;6365531;28;20193;-76
2021/08/17 09:36:21;;;;;;;1.30;1.20;;;;;;;18.05;87.26;100139.47;6365693;28;20189;-76
2021/08/17 09:39:31;;;;;;;1.25;1.25;;;;;;;18.03;87.59;100129.81;6364681;28;20470;-76
2021/08/17 09:42:37;;;;;;;1.30;1.30;;;;;;;18.10;87.63;100138.63;6365624;28;20186;-77
2021/08/17 09:45:42;;;;;;;1.50;1.50;;;;;;;18.12;88.77;100140.00;6365496;28;20249;-76
2021/08/17 09:48:47;;;;;;;1.45;1.45;;;;;;;18.14;89.47;100136.94;6364702;28;20452;-77
2021/08/17 09:51:52;;;;;;;1.80;1.70;;;;;;;18.07;91.65;100130.91;6365620;28;20238;-76
2021/08/17 09:54:56;;;;;;;1.50;1.50;;;;;;;18.20;89.60;100127.53;6365738;28;20213;-76
2021/08/17 09:58:17;;;;;;;2.35;1.30;;;;;;;18.15;89.33;100133.09;6365775;28;20213;-77
2021/08/17 10:01:22;;;;;;;1.42;1.40;;;;;;;18.28;88.50;100135.25;6366063;28;20227;-77
2021/08/17 10:04:28;;;;;;;2.05;1.50;;;;;;;18.23;88.42;100129.75;6366265;28;20198;-77
2021/08/17 10:07:33;;;;;;;1.30;1.30;;;;;;;18.24;89.70;100125.84;6364254;28;20366;-76
2021/08/17 10:10:37;;;;;;;1.50;1.50;;;;;;;18.40;88.07;100121.06;6365369;28;20209;-76
2021/08/17 10:13:44;;;;;;;2.67;1.75;;;;;;;18.36;89.54;100115.28;6364102;28;20406;-76
2021/08/17 10:16:51;;;;;;;1.75;1.65;;;;;;;18.26;89.45;100118.09;6364745;28;20299;-77
2021/08/17 10:19:56;;;;;;;2.65;1.50;;;;;;;18.31;90.24;100115.31;6363749;28;20505;-76
2021/08/17 10:23:01;;;;;;;3.30;2.72;;;;;;;18.41;88.28;100108.91;6364790;28;20189;-76
2021/08/17 10:26:05;;;;;;;1.70;1.63;;;;;;;18.41;87.72;100103.41;6365091;28;20182;-76
2021/08/17 10:29:27;;;;;;;1.58;1.58;;;;;;;18.37;84.87;100097.59;6364478;28;20182;-76
2021/08/17 10:32:59;;;;;;;3.08;1.60;;;;;;;18.33;84.15;100096.53;6365261;28;20237;-77
2021/08/17 10:36:03;;;;;;;1.40;1.38;;;;;;;18.38;84.97;100098.44;6364845;28;20190;-77
2021/08/17 10:39:28;;;;;;;1.40;1.40;;;;;;;18.44;85.12;100091.75;6364429;28;20182;-77
2021/08/17 10:42:32;;;;;;;1.58;1.58;;;;;;;18.38;84.98;100088.22;6362869;28;20450;-77
2021/08/17 10:45:50;;;;;;;1.48;1.45;;;;;;;18.22;84.61;100092.19;6364009;28;20182;-77
2021/08/17 10:48:56;;;;;;;5.22;1.98;;;;;;;18.34;84.06;100081.59;6364655;28;20214;-77
2021/08/17 10:52:01;;;;;;;1.17;1.10;;;;;;;18.24;84.10;100091.88;6362909;28;20584;-77
2021/08/17 10:55:26;;;;;;;3.33;1.90;;;;;;;18.17;87.38;100086.69;6363837;28;20182;-77
2021/08/17 10:58:40;;;;;;;1.90;1.75;;;;;;;18.27;86.33;100091.31;6364242;28;20218;-77
2021/08/17 11:01:46;;;;;;;2.67;2.00;;;;;;;18.37;86.77;100094.03;6363938;28;20186;-77
2021/08/17 11:04:51;;;;;;;2.15;1.80;;;;;;;18.10;88.42;100091.72;6363502;28;20250;-77
2021/08/17 11:08:41;;;;;;;6.57;2.35;;;;;;;18.19;86.87;100084.47;6363101;28;20189;-76
2021/08/17 11:11:46;;;;;;;1.42;1.33;;;;;;;17.95;88.74;100100.06;6362751;28;20210;-76
2021/08/17 11:14:51;;;;;;;1.40;1.30;;;;;;;18.06;87.99;100091.44;6362956;28;20228;-76
2021/08/17 11:18:04;;;;;;;1.45;1.40;;;;;;;18.15;87.74;100083.41;6363849;28;20189;-77
2021/08/17 11:21:09;;;;;;;1.48;1.40;;;;;;;18.04;86.92;100081.78;6363572;28;20182;-77
2021/08/17 11:24:20;;;;;;;3.72;1.42;;;;;;;18.19;86.32;100078.13;6363133;28;20186;-77
2021/08/17 11:27:28;;;;;;;1.40;1.30;;;;;;;18.11;86.84;100074.03;6363916;28;20214;-77
2021/08/17 11:30:32;;;;;;;1.77;1.50;;;;;;;18.19;86.45;100084.47;6363601;28;20182;-77
2021/08/17 11:33:41;;;;;;;5.00;1.50;;;;;;;18.15;82.79;100088.91;6363025;28;20244;-77
2021/08/17 11:37:00;;;;;;;2.25;1.42;;;;;;;18.13;83.76;100085.59;6363519;28;20182;-77
2021/08/17 11:40:06;;;;;;;1.88;1.40;;;;;;;18.06;86.02;100091.44;6363776;28;20186;-77
2021/08/17 11:43:14;;;;;;;2.70;1.73;;;;;;;18.14;84.34;100092.78;6363463;28;20218;-77
2021/08/17 11:46:24;;;;;;;2.72;1.50;;;;;;;18.17;83.94;100085.88;6363792;28;20182;-77
2021/08/17 11:49:29;;;;;;;1.50;1.40;;;;;;;18.16;85.23;100074.00;6362414;28;20407;-77
2021/08/17 11:52:36;;;;;;;1.33;1.33;;;;;;;18.14;84.42;100070.69;6362742;28;20213;-77
2021/08/17 11:55:40;;;;;;;1.60;1.50;;;;;;;18.09;86.34;100062.44;6363244;28;20213;-77
2021/08/17 11:58:44;;;;;;;2.17;1.70;;;;;;;17.97;87.86;100065.56;6362905;28;20182;-77
2021/08/17 12:01:59;;;;;;;1.30;1.30;;;;;;;18.05;85.88;100061.38;6363112;28;20182;-77
2021/08/17 12:05:13;;;;;;;1.60;1.50;;;;;;;18.04;86.92;100059.72;6363117;28;20213;-77
2021/08/17 12:08:21;;;;;;;3.28;1.60;;;;;;;17.86;87.01;100065.88;6362793;28;20189;-77
2021/08/17 12:11:26;;;;;;;1.60;1.48;;;;;;;17.80;86.82;100058.72;6363080;28;20189;-77
2021/08/17 12:14:30;;;;;;;1.95;1.63;;;;;;;17.85;86.78;100056.78;6362250;28;20241;-77
2021/08/17 12:17:34;;;;;;;1.88;1.77;;;;;;;17.73;88.03;100070.06;6363345;28;20182;-77
2021/08/17 12:20:42;;;;;;;1.70;1.70;;;;;;;17.78;86.85;100078.34;6362576;28;20182;-78
2021/08/17 12:23:48;;;;;;;1.70;1.60;;;;;;;17.84;85.80;100077.22;6362726;28;20232;-77
2021/08/17 12:27:01;;;;;;;1.42;1.42;;;;;;;17.86;85.44;100075.00;6363192;28;20188;-77
2021/08/17 12:30:09;;;;;;;1.58;1.50;;;;;;;17.87;84.49;100060.06;6362308;28;20413;-77
2021/08/17 12:33:13;;;;;;;2.00;1.90;;;;;;;17.79;83.06;100073.66;6363042;28;20310;-76
2021/08/17 12:36:23;;;;;;;3.20;1.90;;;;;;;17.82;83.09;100073.09;6361855;28;20410;-77
2021/08/17 12:39:33;;;;;;;1.67;1.67;;;;;;;17.70;83.32;100056.00;6361699;28;20353;-77
2021/08/17 12:42:41;;;;;;;2.20;1.65;;;;;;;17.62;85.83;100049.16;6363169;28;20193;-77
2021/08/17 12:45:45;;;;;;;3.00;2.00;;;;;;;17.58;86.43;100047.25;6363007;28;20190;-77
2021/08/17 12:48:49;;;;;;;3.33;1.80;;;;;;;17.52;86.09;100051.91;6361933;28;20199;-77
2021/08/17 12:51:55;;;;;;;4.35;2.13;;;;;;;17.54;85.14;100054.44;6362206;28;20182;-76
2021/08/17 12:55:06;;;;;;;9.00;1.60;;;;;;;17.58;83.34;100052.75;6361539;28;20396;-76
2021/08/17 12:58:12;;;;;;;2.08;1.80;;;;;;;17.60;83.21;100056.06;6363047;28;20221;-76
2021/08/17 13:01:17;;;;;;;1.85;1.75;;;;;;;17.62;83.21;100062.09;6361966;28;20469;-76
2021/08/17 13:04:21;;;;;;;2.88;1.88;;;;;;;17.55;84.28;100058.84;6364350;28;20193;-76
2021/08/17 13:07:33;;;;;;;1.88;1.80;;;;;;;17.41;84.16;100053.88;6367216;28;20183;-76
2021/08/17 13:10:42;;;;;;;1.70;1.70;;;;;;;17.43;84.48;100059.97;6367494;28;20191;-77
2021/08/17 13:13:49;;;;;;;5.00;1.98;;;;;;;17.37;86.31;100047.28;6365347;28;20236;-76
2021/08/17 13:16:54;;;;;;;1.73;1.63;;;;;;;17.46;84.73;100048.34;6365959;28;20226;-77
2021/08/17 13:19:59;;;;;;;2.03;1.92;;;;;;;17.34;85.81;100039.56;6365747;28;20182;-77
2021/08/17 13:23:04;;;;;;;2.10;1.88;;;;;;;17.30;86.70;100038.50;6364707;28;20554;-77
2021/08/17 13:26:11;;;;;;;2.90;2.10;;;;;;;17.26;87.91;100037.38;6366015;28;20219;-76
2021/08/17 13:29:15;;;;;;;1.80;1.70;;;;;;;17.36;86.39;100026.31;6365559;28;20182;-76
2021/08/17 13:32:19;;;;;;;1.70;1.70;;;;;;;17.31;85.40;100034.63;6364413;28;20462;-76
2021/08/17 13:35:24;;;;;;;2.25;1.73;;;;;;;17.33;84.98;100026.88;6365352;28;20214;-76
2021/08/17 13:38:29;;;;;;;2.58;1.90;;;;;;;17.28;84.73;100028.84;6365303;28;20182;-76
2021/08/17 13:41:33;;;;;;;2.20;1.75;;;;;;;17.33;83.20;100026.88;6346089;28;20229;-76
2021/08/17 13:44:38;;;;;;;1.80;1.70;;;;;;;17.28;82.43;100029.66;6364389;28;20306;-77
2021/08/17 13:47:42;;;;;;;2.28;2.13;;;;;;;17.23;82.92;100034.38;6365336;28;20182;-76
2021/08/17 13:50:46;;;;;;;2.90;2.10;;;;;;;17.29;81.96;100031.31;6365382;28;20213;-76
2021/08/17 13:53:52;;;;;;;1.80;1.70;;;;;;;17.27;82.81;100033.53;6365470;28;20279;-77
2021/08/17 13:56:57;;;;;;;3.38;2.05;;;;;;;17.35;82.29;100024.69;6363991;28;20217;-76
2021/08/17 14:00:01;;;;;;;2.63;2.10;;;;;;;17.35;81.28;100021.94;6364982;28;20183;-76
2021/08/17 14:03:08;;;;;;;2.33;2.20;;;;;;;17.25;82.38;100019.22;6364972;28;20186;-76
2021/08/17 14:06:13;;;;;;;2.40;2.15;;;;;;;17.19;83.33;100025.84;6365028;28;20182;-76
2021/08/17 14:09:20;;;;;;;2.47;1.85;;;;;;;17.10;84.92;100021.19;6363852;28;20214;-76
2021/08/17 14:12:24;;;;;;;2.30;2.05;;;;;;;17.09;83.63;100014.84;6364871;28;20228;-77
2021/08/17 14:15:29;;;;;;;1.63;1.52;;;;;;;17.06;81.62;100009.88;6363436;28;20531;-76
2021/08/17 14:18:37;;;;;;;2.38;2.22;;;;;;;17.10;83.13;100012.91;6364761;28;20189;-77
2021/08/17 14:21:42;;;;;;;2.22;2.08;;;;;;;17.11;82.60;100023.66;6365230;28;20448;-77
2021/08/17 14:24:48;;;;;;;4.60;2.13;;;;;;;17.15;82.52;100024.75;6345955;28;20233;-77